createdAt,value
2017-12-03T00:00:15.489Z,-0.80
2017-12-03T00:02:43.559Z,-0.80
2017-12-03T00:05:18.260Z,-0.80
2017-12-03T00:07:51.124Z,-0.80
2017-12-03T00:10:20.553Z,-0.80
2017-12-03T00:12:50.305Z,-0.90
2017-12-03T00:15:18.507Z,-0.80
2017-12-03T00:17:46.607Z,-0.90
2017-12-03T00:20:14.691Z,-0.90
2017-12-03T00:22:43.835Z,-0.90
2017-12-03T00:25:13.410Z,-0.90
2017-12-03T00:27:41.442Z,-0.90
2017-12-03T00:30:10.273Z,-0.90
2017-12-03T00:32:38.322Z,-0.80
2017-12-03T00:35:06.337Z,-0.90
2017-12-03T00:37:34.428Z,-0.90
2017-12-03T00:40:08.431Z,-0.90
2017-12-03T00:42:36.776Z,-0.90
2017-12-03T00:45:05.736Z,-0.90
2017-12-03T00:47:37.637Z,-0.90
2017-12-03T00:50:05.782Z,-0.90
2017-12-03T00:52:34.718Z,-0.90
2017-12-03T00:55:02.816Z,-0.80
2017-12-03T00:57:30.882Z,-0.90
2017-12-03T00:59:59.113Z,-0.80
2017-12-03T01:02:27.647Z,-0.80
2017-12-03T01:04:55.721Z,-0.80
2017-12-03T01:07:23.870Z,-0.80
2017-12-03T01:09:52.147Z,-0.80
2017-12-03T01:12:20.221Z,-0.80
2017-12-03T01:14:50.862Z,-0.80
2017-12-03T01:17:19.506Z,-0.80
2017-12-03T01:19:50.380Z,-0.80
2017-12-03T01:22:19.631Z,-0.80
2017-12-03T01:24:47.720Z,-0.80
2017-12-03T01:27:15.716Z,-0.80
2017-12-03T01:29:43.850Z,-0.80
2017-12-03T01:32:16.931Z,-0.80
2017-12-03T01:34:48.094Z,-0.70
2017-12-03T01:37:17.761Z,-0.70
2017-12-03T01:39:46.025Z,-0.70
2017-12-03T01:42:15.216Z,-0.70
2017-12-03T01:44:43.830Z,-0.70
2017-12-03T01:47:12.752Z,-0.80
2017-12-03T01:49:41.625Z,-0.70
2017-12-03T01:52:13.373Z,-0.80
2017-12-03T01:54:41.624Z,-0.80
2017-12-03T01:57:10.747Z,-0.80
2017-12-03T01:59:39.122Z,-0.80
2017-12-03T02:02:07.571Z,-0.80
2017-12-03T02:04:35.737Z,-0.70
2017-12-03T02:07:03.779Z,-0.70
2017-12-03T02:09:33.058Z,-0.70
2017-12-03T02:12:01.905Z,-0.70
2017-12-03T02:14:29.997Z,-0.70
2017-12-03T02:16:58.115Z,-0.70
2017-12-03T02:19:27.311Z,-0.70
2017-12-03T02:21:55.447Z,-0.70
2017-12-03T02:24:24.409Z,-0.70
2017-12-03T02:26:52.584Z,-0.70
2017-12-03T02:29:20.764Z,-0.70
2017-12-03T02:31:48.901Z,-0.70
2017-12-03T02:34:17.536Z,-0.70
2017-12-03T02:36:47.457Z,-0.70
2017-12-03T02:39:15.544Z,-0.70
2017-12-03T02:41:43.642Z,-0.70
2017-12-03T02:44:12.930Z,-0.70
2017-12-03T02:46:41.022Z,-0.70
2017-12-03T02:49:09.183Z,-0.70
2017-12-03T02:51:37.347Z,-0.70
2017-12-03T02:54:05.476Z,-0.80
2017-12-03T02:56:33.581Z,-0.80
2017-12-03T02:59:01.755Z,-0.80
2017-12-03T03:01:29.884Z,-0.80
2017-12-03T03:03:59.200Z,-0.80
2017-12-03T03:06:28.251Z,-0.80
2017-12-03T03:08:56.918Z,-0.80
2017-12-03T03:11:28.258Z,-0.80
2017-12-03T03:13:56.406Z,-0.90
2017-12-03T03:16:24.412Z,-0.90
2017-12-03T03:18:52.567Z,-0.90
2017-12-03T03:21:20.578Z,-0.90
2017-12-03T03:23:48.676Z,-0.90
2017-12-03T03:26:16.824Z,-0.90
2017-12-03T03:28:44.975Z,-0.90
2017-12-03T03:31:12.968Z,-0.90
2017-12-03T03:33:43.975Z,-0.80
2017-12-03T03:36:12.005Z,-0.80
2017-12-03T03:38:40.036Z,-0.80
2017-12-03T03:41:09.120Z,-0.80
2017-12-03T03:43:37.293Z,-0.80
2017-12-03T03:46:05.280Z,-0.80
2017-12-03T03:48:33.657Z,-0.80
2017-12-03T03:51:01.739Z,-0.80
2017-12-03T03:53:29.894Z,-0.80
2017-12-03T03:55:58.327Z,-0.80
2017-12-03T03:58:26.998Z,-0.80
2017-12-03T04:00:55.185Z,-0.90
2017-12-03T04:03:23.324Z,-0.90
2017-12-03T04:05:51.379Z,-0.90
2017-12-03T04:08:19.554Z,-0.90
2017-12-03T04:10:47.577Z,-0.90
2017-12-03T04:13:15.748Z,-0.90
2017-12-03T04:15:44.988Z,-0.80
2017-12-03T04:18:14.169Z,-0.80
2017-12-03T04:20:42.260Z,-0.80
2017-12-03T04:23:10.668Z,-0.80
2017-12-03T04:25:38.778Z,-0.80
2017-12-03T04:28:07.858Z,-0.90
2017-12-03T04:30:36.386Z,-0.90
2017-12-03T04:33:04.561Z,-0.90
2017-12-03T04:35:32.739Z,-0.80
2017-12-03T04:38:04.476Z,-0.80
2017-12-03T04:40:34.120Z,-0.80
2017-12-03T04:43:02.715Z,-0.80
2017-12-03T04:45:30.913Z,-0.80
2017-12-03T04:47:59.370Z,-0.80
2017-12-03T04:50:28.607Z,-0.80
2017-12-03T04:52:56.814Z,-0.80
2017-12-03T04:55:25.001Z,-0.80
2017-12-03T04:57:53.537Z,-0.80
2017-12-03T05:00:21.709Z,-0.80
2017-12-03T05:02:51.016Z,-0.80
2017-12-03T05:05:19.181Z,-0.80
2017-12-03T05:07:47.358Z,-0.80
2017-12-03T05:10:15.679Z,-0.80
2017-12-03T05:12:43.956Z,-0.80
2017-12-03T05:15:12.187Z,-0.90
2017-12-03T05:17:40.398Z,-0.90
2017-12-03T05:20:08.884Z,-0.90
2017-12-03T05:22:37.462Z,-0.90
2017-12-03T05:25:05.672Z,-0.90
2017-12-03T05:27:36.017Z,-0.90
2017-12-03T05:30:03.966Z,-0.90
2017-12-03T05:32:32.182Z,-0.90
2017-12-03T05:35:00.448Z,-0.90
2017-12-03T05:37:28.530Z,-0.80
2017-12-03T05:39:56.763Z,-0.90
2017-12-03T05:42:24.772Z,-0.80
2017-12-03T05:44:52.937Z,-0.90
2017-12-03T05:47:21.316Z,-0.90
2017-12-03T05:49:49.330Z,-0.90
2017-12-03T05:52:17.718Z,-0.90
2017-12-03T05:54:46.061Z,-0.90
2017-12-03T05:57:14.126Z,-0.90
2017-12-03T05:59:42.262Z,-1.00
2017-12-03T06:02:10.623Z,-1.00
2017-12-03T06:04:46.494Z,-1.00
2017-12-03T06:07:14.637Z,-1.00
2017-12-03T06:09:42.820Z,-1.00
2017-12-03T06:12:11.322Z,-1.00
2017-12-03T06:14:39.498Z,-1.00
2017-12-03T06:17:07.607Z,-1.10
2017-12-03T06:19:35.914Z,-1.00
2017-12-03T06:22:05.246Z,-1.00
2017-12-03T06:24:33.320Z,-1.00
2017-12-03T06:27:01.417Z,-1.00
2017-12-03T06:29:29.445Z,-1.10
2017-12-03T06:31:57.515Z,-1.10
2017-12-03T06:34:25.426Z,-1.10
2017-12-03T06:36:53.521Z,-1.10
2017-12-03T06:39:21.507Z,-1.10
2017-12-03T06:41:49.617Z,-1.10
2017-12-03T06:44:17.694Z,-1.10
2017-12-03T06:46:45.762Z,-1.10
2017-12-03T06:49:15.164Z,-1.20
2017-12-03T06:51:44.158Z,-1.20
2017-12-03T06:54:18.609Z,-1.20
2017-12-03T06:56:46.586Z,-1.20
2017-12-03T06:59:14.675Z,-1.10
2017-12-03T07:01:43.207Z,-1.10
2017-12-03T07:04:11.482Z,-1.10
2017-12-03T07:06:39.540Z,-1.10
2017-12-03T07:09:08.282Z,-1.10
2017-12-03T07:11:36.388Z,-1.10
2017-12-03T07:14:04.521Z,-1.10
2017-12-03T07:16:32.658Z,-1.00
2017-12-03T07:19:03.464Z,-1.00
2017-12-03T07:21:31.570Z,-1.00
2017-12-03T07:23:59.694Z,-1.00
2017-12-03T07:26:29.075Z,-1.00
2017-12-03T07:28:57.831Z,-1.00
2017-12-03T07:34:02.434Z,-1.00
2017-12-03T07:36:50.648Z,-0.90
2017-12-03T07:39:18.921Z,-0.90
2017-12-03T07:41:47.106Z,-0.90
2017-12-03T07:44:15.407Z,-0.90
2017-12-03T07:46:45.600Z,-0.90
2017-12-03T07:49:13.768Z,-0.80
2017-12-03T07:51:41.948Z,-0.80
2017-12-03T07:54:10.157Z,-0.80
2017-12-03T07:56:40.209Z,-0.80
2017-12-03T07:59:08.180Z,-0.70
2017-12-03T08:01:37.859Z,-0.70
2017-12-03T08:04:06.033Z,-0.70
2017-12-03T08:06:34.315Z,-0.70
2017-12-03T08:09:04.337Z,-0.70
2017-12-03T08:11:32.779Z,-0.70
2017-12-03T08:14:02.380Z,-0.70
2017-12-03T08:16:30.565Z,-0.60
2017-12-03T08:18:59.156Z,-0.60
2017-12-03T08:21:29.725Z,-0.60
2017-12-03T08:24:00.567Z,-0.60
2017-12-03T08:26:28.821Z,-0.60
2017-12-03T08:28:58.609Z,-0.50
2017-12-03T08:31:26.801Z,-0.50
2017-12-03T08:33:55.048Z,-0.50
2017-12-03T08:36:23.770Z,-0.50
2017-12-03T08:38:52.051Z,-0.50
2017-12-03T08:41:20.246Z,-0.40
2017-12-03T08:43:50.983Z,-0.40
2017-12-03T08:46:20.014Z,-0.30
2017-12-03T08:48:48.298Z,-0.30
2017-12-03T08:51:18.930Z,-0.20
2017-12-03T08:53:56.365Z,-0.20
2017-12-03T08:56:25.107Z,-0.10
2017-12-03T08:58:55.113Z,-0.10
2017-12-03T09:01:24.482Z,-0.10
2017-12-03T09:03:53.724Z,0.00
2017-12-03T09:06:21.887Z,0.00
2017-12-03T09:11:42.543Z,0.10
2017-12-03T09:14:20.035Z,0.10
2017-12-03T09:16:58.696Z,0.20
2017-12-03T09:19:38.241Z,0.20
2017-12-03T09:22:23.620Z,0.20
2017-12-03T09:25:05.731Z,0.20
2017-12-03T09:27:48.835Z,0.30
2017-12-03T09:33:12.316Z,0.30
2017-12-03T09:35:54.835Z,0.40
2017-12-03T09:38:34.167Z,0.40
2017-12-03T09:41:16.784Z,0.50
2017-12-03T09:44:00.157Z,0.50
2017-12-03T09:46:33.892Z,0.40
2017-12-03T09:49:11.711Z,0.40
2017-12-03T09:51:42.160Z,0.50
2017-12-03T09:54:10.575Z,0.60
2017-12-03T09:56:42.303Z,0.60
2017-12-03T09:59:09.934Z,0.60
2017-12-03T10:01:37.544Z,0.60
2017-12-03T10:04:05.181Z,0.60
2017-12-03T10:06:35.355Z,0.60
2017-12-03T10:09:03.007Z,0.70
2017-12-03T10:11:31.404Z,0.70
2017-12-03T10:14:00.961Z,0.70
2017-12-03T10:16:35.347Z,0.80
2017-12-03T10:19:03.258Z,0.80
2017-12-03T10:21:30.912Z,0.90
2017-12-03T10:24:01.005Z,0.90
2017-12-03T10:26:28.603Z,0.90
2017-12-03T10:28:58.958Z,1.00
2017-12-03T10:31:26.580Z,1.00
2017-12-03T10:33:54.178Z,1.00
2017-12-03T10:36:21.823Z,1.00
2017-12-03T10:38:49.376Z,1.10
2017-12-03T10:41:17.872Z,1.20
2017-12-03T10:43:47.660Z,1.20
2017-12-03T10:46:15.253Z,1.30
2017-12-03T10:48:42.895Z,1.30
2017-12-03T10:51:11.347Z,1.30
2017-12-03T10:53:40.225Z,1.30
2017-12-03T10:56:08.756Z,1.30
2017-12-03T10:58:36.416Z,1.30
2017-12-03T11:01:04.792Z,1.40
2017-12-03T11:03:36.864Z,1.30
2017-12-03T11:06:07.980Z,1.30
2017-12-03T11:08:37.667Z,1.30
2017-12-03T11:11:05.732Z,1.40
2017-12-03T11:13:35.003Z,1.20
2017-12-03T11:16:02.594Z,1.20
2017-12-03T11:18:31.606Z,1.10
2017-12-03T11:20:59.389Z,1.00
2017-12-03T11:23:26.922Z,0.90
2017-12-03T11:25:56.920Z,1.00
2017-12-03T11:28:24.635Z,1.00
2017-12-03T11:30:55.347Z,1.00
2017-12-03T11:33:24.423Z,1.10
2017-12-03T11:35:53.058Z,1.20
2017-12-03T11:38:20.599Z,1.30
2017-12-03T11:40:51.032Z,1.30
2017-12-03T11:43:22.040Z,1.30
2017-12-03T11:45:49.660Z,1.20
2017-12-03T11:48:17.254Z,1.00
2017-12-03T11:50:45.760Z,1.00
2017-12-03T11:53:13.575Z,1.00
2017-12-03T11:55:43.003Z,1.00
2017-12-03T11:58:10.567Z,1.00
2017-12-03T12:00:38.139Z,1.00
2017-12-03T12:03:06.324Z,0.90
2017-12-03T12:05:37.325Z,0.90
2017-12-03T12:08:04.897Z,1.00
2017-12-03T12:10:32.969Z,1.00
2017-12-03T12:13:00.636Z,1.00
2017-12-03T12:15:28.244Z,0.80
2017-12-03T12:17:56.923Z,0.70
2017-12-03T12:20:24.476Z,0.60
2017-12-03T12:22:52.108Z,0.50
2017-12-03T12:25:19.735Z,0.60
2017-12-03T12:27:47.303Z,0.70
2017-12-03T12:30:14.835Z,0.70
2017-12-03T12:32:42.410Z,0.70
2017-12-03T12:35:10.885Z,0.70
2017-12-03T12:37:38.735Z,0.80
2017-12-03T12:40:07.624Z,0.80
2017-12-03T12:42:35.749Z,0.80
2017-12-03T12:45:04.092Z,0.70
2017-12-03T12:47:31.854Z,0.70
2017-12-03T12:50:00.236Z,0.70
2017-12-03T12:52:27.839Z,0.70
2017-12-03T12:54:56.305Z,0.70
2017-12-03T12:57:25.990Z,0.70
2017-12-03T12:59:53.635Z,0.80
2017-12-03T13:02:21.304Z,0.70
2017-12-03T13:04:51.018Z,0.70
2017-12-03T13:07:18.544Z,0.70
2017-12-03T13:09:46.139Z,0.70
2017-12-03T13:12:13.716Z,0.60
2017-12-03T13:14:41.304Z,0.50
2017-12-03T13:17:08.953Z,0.50
2017-12-03T13:19:37.136Z,0.50
2017-12-03T13:22:04.825Z,0.60
2017-12-03T13:24:32.426Z,0.60
2017-12-03T13:27:00.670Z,0.50
2017-12-03T13:29:28.332Z,0.50
2017-12-03T13:31:56.495Z,0.50
2017-12-03T13:34:24.332Z,0.50
2017-12-03T13:36:51.892Z,0.40
2017-12-03T13:39:19.458Z,0.40
2017-12-03T13:41:47.633Z,0.30
2017-12-03T13:44:15.551Z,0.30
2017-12-03T13:46:43.975Z,0.20
2017-12-03T13:49:12.335Z,0.10
2017-12-03T13:51:40.381Z,0.10
2017-12-03T13:54:08.196Z,0.10
2017-12-03T13:56:36.728Z,0.00
2017-12-03T13:59:04.458Z,0.00
2017-12-03T14:01:32.039Z,0.00
2017-12-03T14:03:59.620Z,0.00
2017-12-03T14:06:27.514Z,-0.10
2017-12-03T14:08:55.168Z,-0.10
2017-12-03T14:11:22.873Z,-0.10
2017-12-03T14:13:50.499Z,-0.20
2017-12-03T14:16:18.103Z,-0.20
2017-12-03T14:18:46.545Z,-0.30
2017-12-03T14:21:14.755Z,-0.30
2017-12-03T14:23:42.407Z,-0.30
2017-12-03T14:26:10.465Z,-0.40
2017-12-03T14:28:38.307Z,-0.50
2017-12-03T14:31:05.907Z,-0.50
2017-12-03T14:33:33.516Z,-0.50
2017-12-03T14:36:01.133Z,-0.50
2017-12-03T14:38:28.676Z,-0.60
2017-12-03T14:40:56.253Z,-0.70
2017-12-03T14:43:23.836Z,-0.70
2017-12-03T14:45:51.680Z,-0.80
2017-12-03T14:48:19.237Z,-0.80
2017-12-03T14:50:46.840Z,-0.80
2017-12-03T14:53:15.351Z,-0.90
2017-12-03T14:55:42.953Z,-0.90
2017-12-03T14:58:10.587Z,-0.90
2017-12-03T15:00:38.182Z,-1.00
2017-12-03T15:03:06.088Z,-1.00
2017-12-03T15:05:33.716Z,-1.10
2017-12-03T15:08:01.377Z,-1.10
2017-12-03T15:10:28.999Z,-1.10
2017-12-03T15:12:56.719Z,-1.20
2017-12-03T15:15:25.720Z,-1.20
2017-12-03T15:17:55.704Z,-1.10
2017-12-03T15:20:23.397Z,-1.20
2017-12-03T15:22:52.124Z,-1.10
2017-12-03T15:25:20.076Z,-1.10
2017-12-03T15:27:47.753Z,-1.10
2017-12-03T15:30:16.047Z,-1.10
2017-12-03T15:32:43.684Z,-1.10
2017-12-03T15:35:12.134Z,-1.20
2017-12-03T15:37:39.719Z,-1.20
2017-12-03T15:40:07.452Z,-1.20
2017-12-03T15:42:35.110Z,-1.30
2017-12-03T15:45:06.302Z,-1.40
2017-12-03T15:47:34.028Z,-1.40
2017-12-03T15:50:02.387Z,-1.50
2017-12-03T15:52:30.908Z,-1.50
2017-12-03T15:54:58.579Z,-1.50
2017-12-03T15:57:26.307Z,-1.50
2017-12-03T15:59:53.956Z,-1.50
2017-12-03T16:02:21.574Z,-1.40
2017-12-03T16:04:49.190Z,-1.40
2017-12-03T16:07:17.945Z,-1.40
2017-12-03T16:09:45.591Z,-1.40
2017-12-03T16:12:13.175Z,-1.30
2017-12-03T16:14:42.757Z,-1.30
2017-12-03T16:17:10.379Z,-1.30
2017-12-03T16:19:38.796Z,-1.30
2017-12-03T16:22:06.388Z,-1.30
2017-12-03T16:24:34.060Z,-1.30
2017-12-03T16:27:03.568Z,-1.30
2017-12-03T16:29:31.228Z,-1.30
2017-12-03T16:31:59.081Z,-1.30
2017-12-03T16:34:26.826Z,-1.30
2017-12-03T16:36:55.813Z,-1.20
2017-12-03T16:39:23.531Z,-1.30
2017-12-03T16:41:51.948Z,-1.20
2017-12-03T16:44:21.000Z,-1.30
2017-12-03T16:46:48.696Z,-1.20
2017-12-03T16:49:16.283Z,-1.20
2017-12-03T16:51:45.048Z,-1.20
2017-12-03T16:54:13.809Z,-1.20
2017-12-03T16:56:43.420Z,-1.20
2017-12-03T16:59:11.933Z,-1.30
2017-12-03T17:01:39.651Z,-1.30
2017-12-03T17:04:07.326Z,-1.20
2017-12-03T17:06:36.398Z,-1.20
2017-12-03T17:09:04.031Z,-1.30
2017-12-03T17:11:33.632Z,-1.20
2017-12-03T17:14:02.059Z,-1.20
2017-12-03T17:16:31.925Z,-1.20
2017-12-03T17:19:01.600Z,-1.20
2017-12-03T17:21:29.593Z,-1.20
2017-12-03T17:23:57.400Z,-1.20
2017-12-03T17:26:25.032Z,-1.20
2017-12-03T17:28:52.600Z,-1.20
2017-12-03T17:31:21.361Z,-1.20
2017-12-03T17:33:52.823Z,-1.20
2017-12-03T17:36:20.492Z,-1.20
2017-12-03T17:38:48.302Z,-1.20
2017-12-03T17:41:15.980Z,-1.20
2017-12-03T17:43:44.331Z,-1.20
2017-12-03T17:46:14.072Z,-1.20
2017-12-03T17:48:44.054Z,-1.10
2017-12-03T17:51:11.671Z,-1.20
2017-12-03T17:53:40.040Z,-1.10
2017-12-03T17:56:07.654Z,-1.10
2017-12-03T17:58:35.339Z,-1.10
2017-12-03T18:01:03.669Z,-1.10
2017-12-03T18:03:34.759Z,-1.20
2017-12-03T18:06:02.647Z,-1.10
2017-12-03T18:08:30.820Z,-1.10
2017-12-03T18:11:01.847Z,-1.10
2017-12-03T18:13:33.551Z,-1.10
2017-12-03T18:16:02.174Z,-1.10
2017-12-03T18:18:29.831Z,-1.10
2017-12-03T18:20:57.381Z,-1.10
2017-12-03T18:23:24.995Z,-1.10
2017-12-03T18:25:52.631Z,-1.10
2017-12-03T18:28:20.477Z,-1.20
2017-12-03T18:30:48.548Z,-1.20
2017-12-03T18:33:16.211Z,-1.10
2017-12-03T18:35:43.814Z,-1.10
2017-12-03T18:38:11.585Z,-1.10
2017-12-03T18:40:39.352Z,-1.10
2017-12-03T18:43:07.121Z,-1.10
2017-12-03T18:45:35.006Z,-1.10
2017-12-03T18:48:02.630Z,-1.00
2017-12-03T18:50:31.050Z,-1.00
2017-12-03T18:52:58.878Z,-1.00
2017-12-03T18:55:27.338Z,-1.00
2017-12-03T18:57:55.875Z,-1.00
2017-12-03T19:00:23.672Z,-1.00
2017-12-03T19:02:51.349Z,-1.00
2017-12-03T19:05:20.308Z,-1.10
2017-12-03T19:07:51.187Z,-1.10
2017-12-03T19:10:19.612Z,-1.00
2017-12-03T19:12:47.439Z,-1.00
2017-12-03T19:15:16.068Z,-1.10
2017-12-03T19:17:43.649Z,-1.10
2017-12-03T19:20:12.004Z,-1.10
2017-12-03T19:22:39.695Z,-1.10
2017-12-03T19:25:07.311Z,-1.00
2017-12-03T19:27:34.974Z,-1.00
2017-12-03T19:30:02.535Z,-1.00
2017-12-03T19:32:32.379Z,-1.00
2017-12-03T19:34:59.996Z,-1.00
2017-12-03T19:37:27.696Z,-1.00
2017-12-03T19:39:55.344Z,-1.00
2017-12-03T19:42:23.023Z,-1.00
2017-12-03T19:44:50.632Z,-1.00
2017-12-03T19:47:18.364Z,-1.00
2017-12-03T19:49:46.601Z,-0.90
2017-12-03T19:52:14.941Z,-0.90
2017-12-03T19:54:43.558Z,-0.90
2017-12-03T19:57:11.139Z,-0.90
2017-12-03T19:59:38.724Z,-0.90
2017-12-03T20:02:06.421Z,-0.90
2017-12-03T20:04:34.265Z,-1.00
2017-12-03T20:07:01.931Z,-1.00
2017-12-03T20:09:29.649Z,-0.90
2017-12-03T20:11:57.352Z,-0.90
2017-12-03T20:14:25.016Z,-0.90
2017-12-03T20:16:52.637Z,-0.90
2017-12-03T20:19:20.199Z,-1.00
2017-12-03T20:21:48.308Z,-0.90
2017-12-03T20:24:15.910Z,-0.90
2017-12-03T20:26:43.598Z,-0.90
2017-12-03T20:29:11.260Z,-1.00
2017-12-03T20:31:38.876Z,-1.10
2017-12-03T20:34:07.253Z,-1.10
2017-12-03T20:36:35.610Z,-1.10
2017-12-03T20:39:04.975Z,-1.10
2017-12-03T20:41:32.732Z,-1.10
2017-12-03T20:44:00.278Z,-1.10
2017-12-03T20:46:27.962Z,-1.10
2017-12-03T20:48:55.545Z,-1.20
2017-12-03T20:51:23.190Z,-1.20
2017-12-03T20:53:50.767Z,-1.20
2017-12-03T20:56:18.424Z,-1.20
2017-12-03T20:58:45.973Z,-1.20
2017-12-03T21:01:13.628Z,-1.20
2017-12-03T21:03:41.406Z,-1.20
2017-12-03T21:06:09.074Z,-1.20
2017-12-03T21:08:36.697Z,-1.20
2017-12-03T21:11:04.340Z,-1.30
2017-12-03T21:13:34.702Z,-1.20
2017-12-03T21:16:02.361Z,-1.20
2017-12-03T21:18:30.012Z,-1.30
2017-12-03T21:20:57.593Z,-1.20
2017-12-03T21:23:25.378Z,-1.20
2017-12-03T21:25:53.039Z,-1.20
2017-12-03T21:28:20.660Z,-1.20
2017-12-03T21:30:48.280Z,-1.20
2017-12-03T21:33:15.925Z,-1.20
2017-12-03T21:35:43.559Z,-1.20
2017-12-03T21:38:11.198Z,-1.10
2017-12-03T21:40:38.871Z,-1.10
2017-12-03T21:43:06.476Z,-1.10
2017-12-03T21:45:34.128Z,-1.10
2017-12-03T21:48:01.661Z,-1.10
2017-12-03T21:50:29.331Z,-1.10
2017-12-03T21:52:56.920Z,-1.10
2017-12-03T21:55:25.575Z,-1.00
2017-12-03T21:57:53.208Z,-1.00
2017-12-03T22:00:20.807Z,-1.00
2017-12-03T22:02:48.443Z,-1.00
2017-12-03T22:05:16.045Z,-1.00
2017-12-03T22:07:43.663Z,-0.90
2017-12-03T22:10:11.295Z,-0.90
2017-12-03T22:12:39.656Z,-0.90
2017-12-03T22:15:07.255Z,-0.90
2017-12-03T22:17:34.856Z,-0.90
2017-12-03T22:20:02.812Z,-0.90
2017-12-03T22:22:30.395Z,-0.90
2017-12-03T22:24:58.020Z,-0.90
2017-12-03T22:27:25.696Z,-0.90
2017-12-03T22:29:53.272Z,-0.90
2017-12-03T22:32:20.805Z,-0.90
2017-12-03T22:34:48.403Z,-0.90
2017-12-03T22:37:15.979Z,-0.90
2017-12-03T22:39:43.540Z,-0.90
2017-12-03T22:42:11.115Z,-0.90
2017-12-03T22:44:38.698Z,-0.90
2017-12-03T22:47:06.272Z,-0.90
2017-12-03T22:49:33.882Z,-0.90
2017-12-03T22:52:01.462Z,-0.80
2017-12-03T22:54:29.932Z,-0.80
2017-12-03T22:56:58.291Z,-0.80
2017-12-03T22:59:25.914Z,-0.80
2017-12-03T23:01:53.516Z,-0.80
2017-12-03T23:04:29.904Z,-0.80
2017-12-03T23:06:57.406Z,-0.80
2017-12-03T23:09:25.006Z,-0.70
2017-12-03T23:11:52.542Z,-0.70
2017-12-03T23:14:20.159Z,-0.70
2017-12-03T23:16:47.749Z,-0.70
2017-12-03T23:19:15.354Z,-0.60
2017-12-03T23:21:42.901Z,-0.60
2017-12-03T23:24:10.532Z,-0.60
2017-12-03T23:26:38.186Z,-0.60
2017-12-03T23:29:05.848Z,-0.60
2017-12-03T23:31:33.721Z,-0.60
2017-12-03T23:34:01.344Z,-0.50
2017-12-03T23:36:29.762Z,-0.50
2017-12-03T23:38:57.377Z,-0.50
2017-12-03T23:41:24.980Z,-0.40
2017-12-03T23:43:52.568Z,-0.40
2017-12-03T23:46:20.250Z,-0.40
2017-12-03T23:48:47.891Z,-0.40
2017-12-03T23:51:15.469Z,-0.40
2017-12-03T23:53:43.806Z,-0.30
2017-12-03T23:56:11.405Z,-0.40
2017-12-03T23:58:38.998Z,-0.30
